sensor_id;sensor_type;location;lat;lon;timestamp;pressure;altitude;pressure_sealevel;temperature;humidity
35443;BME280;21561;55.654;37.592;2022-10-18T00:00:16;99964.44;;;7.62;100.00
35443;BME280;21561;55.654;37.592;2022-10-18T00:02:42;99962.72;;;7.63;100.00
35443;BME280;21561;55.654;37.592;2022-10-18T00:05:09;99960.09;;;7.58;100.00
35443;BME280;21561;55.654;37.592;2022-10-18T00:07:36;99942.88;;;7.59;100.00
35443;BME280;21561;55.654;37.592;2022-10-18T00:10:03;99948.00;;;7.53;100.00
35443;BME280;21561;55.654;37.592;2022-10-18T00:12:31;99947.16;;;7.57;100.00
35443;BME280;21561;55.654;37.592;2022-10-18T00:14:58;99935.13;;;7.56;100.00
35443;BME280;21561;55.654;37.592;2022-10-18T00:17:24;99935.13;;;7.59;100.00
35443;BME280;21561;55.654;37.592;2022-10-18T00:19:51;99947.16;;;7.54;100.00
35443;BME280;21561;55.654;37.592;2022-10-18T00:22:17;99945.44;;;7.59;100.00
35443;BME280;21561;55.654;37.592;2022-10-18T00:24:44;99931.66;;;7.57;100.00
35443;BME280;21561;55.654;37.592;2022-10-18T00:27:11;99921.38;;;7.60;100.00
35443;BME280;21561;55.654;37.592;2022-10-18T00:29:37;99925.69;;;7.61;100.00
35443;BME280;21561;55.654;37.592;2022-10-18T00:32:04;99918.78;;;7.60;100.00
35443;BME280;21561;55.654;37.592;2022-10-18T00:34:31;99915.31;;;7.56;100.00
35443;BME280;21561;55.654;37.592;2022-10-18T00:36:57;99916.16;;;7.54;100.00
35443;BME280;21561;55.654;37.592;2022-10-18T00:39:24;99909.28;;;7.56;100.00
35443;BME280;21561;55.654;37.592;2022-10-18T00:41:50;99906.66;;;7.53;100.00
35443;BME280;21561;55.654;37.592;2022-10-18T00:46:45;99901.47;;;7.50;100.00
35443;BME280;21561;55.654;37.592;2022-10-18T00:49:14;99900.66;;;7.54;100.00
35443;BME280;21561;55.654;37.592;2022-10-18T00:51:43;99898.94;;;7.53;100.00
35443;BME280;21561;55.654;37.592;2022-10-18T00:54:11;99889.44;;;7.49;100.00
35443;BME280;21561;55.654;37.592;2022-10-18T00:56:38;99893.69;;;7.43;100.00
35443;BME280;21561;55.654;37.592;2022-10-18T00:59:05;99888.44;;;7.37;100.00
35443;BME280;21561;55.654;37.592;2022-10-18T01:01:32;99891.94;;;7.42;100.00
35443;BME280;21561;55.654;37.592;2022-10-18T01:03:59;99893.63;;;7.40;100.00
35443;BME280;21561;55.654;37.592;2022-10-18T01:06:26;99874.66;;;7.37;100.00
35443;BME280;21561;55.654;37.592;2022-10-18T01:09:09;99871.22;;;7.36;100.00
35443;BME280;21561;55.654;37.592;2022-10-18T01:16:59;99890.13;;;7.32;100.00
35443;BME280;21561;55.654;37.592;2022-10-18T01:20:15;99872.06;;;7.34;100.00
35443;BME280;21561;55.654;37.592;2022-10-18T01:22:26;99872.06;;;7.34;100.00
35443;BME280;21561;55.654;37.592;2022-10-18T01:32:45;99874.66;;;7.35;100.00
35443;BME280;21561;55.654;37.592;2022-10-18T01:35:14;99873.78;;;7.33;100.00
35443;BME280;21561;55.654;37.592;2022-10-18T01:37:44;99863.44;;;7.32;100.00
35443;BME280;21561;55.654;37.592;2022-10-18T01:40:13;99854.78;;;7.28;100.00
35443;BME280;21561;55.654;37.592;2022-10-18T01:42:43;99873.69;;;7.24;100.00
35443;BME280;21561;55.654;37.592;2022-10-18T01:45:10;99869.38;;;7.23;100.00
35443;BME280;21561;55.654;37.592;2022-10-18T01:47:39;99852.22;;;7.25;100.00
35443;BME280;21561;55.654;37.592;2022-10-18T01:50:06;99869.31;;;7.17;100.00
35443;BME280;21561;55.654;37.592;2022-10-18T01:52:32;99846.09;;;7.17;100.00
35443;BME280;21561;55.654;37.592;2022-10-18T01:54:59;99838.34;;;7.17;100.00
35443;BME280;21561;55.654;37.592;2022-10-18T01:57:31;99844.34;;;7.14;100.00
35443;BME280;21561;55.654;37.592;2022-10-18T02:02:39;99834.00;;;7.13;100.00
35443;BME280;21561;55.654;37.592;2022-10-18T02:10:41;99823.63;;;7.08;100.00
35443;BME280;21561;55.654;37.592;2022-10-18T02:13:10;99827.06;;;7.08;100.00
35443;BME280;21561;55.654;37.592;2022-10-18T02:15:39;99825.34;;;7.06;100.00
35443;BME280;21561;55.654;37.592;2022-10-18T02:18:07;99826.25;;;7.11;100.00
35443;BME280;21561;55.654;37.592;2022-10-18T02:20:36;99821.13;;;7.13;100.00
35443;BME280;21561;55.654;37.592;2022-10-18T02:23:07;99828.78;;;7.08;100.00
35443;BME280;21561;55.654;37.592;2022-10-18T02:25:35;99827.06;;;7.08;100.00
35443;BME280;21561;55.654;37.592;2022-10-18T02:28:02;99827.91;;;7.04;100.00
35443;BME280;21561;55.654;37.592;2022-10-18T02:30:35;99813.34;;;7.10;100.00
35443;BME280;21561;55.654;37.592;2022-10-18T02:33:14;99812.41;;;7.04;100.00
35443;BME280;21561;55.654;37.592;2022-10-18T02:35:46;99809.00;;;7.05;100.00
35443;BME280;21561;55.654;37.592;2022-10-18T02:38:15;99798.66;;;7.02;100.00
35443;BME280;21561;55.654;37.592;2022-10-18T02:40:43;99796.91;;;7.01;100.00
35443;BME280;21561;55.654;37.592;2022-10-18T02:43:09;99802.97;;;7.05;100.00
35443;BME280;21561;55.654;37.592;2022-10-18T02:45:36;99795.22;;;7.03;100.00
35443;BME280;21561;55.654;37.592;2022-10-18T02:48:03;99793.41;;;6.96;100.00
35443;BME280;21561;55.654;37.592;2022-10-18T02:50:29;99790.81;;;6.96;100.00
35443;BME280;21561;55.654;37.592;2022-10-18T02:52:56;99791.69;;;6.95;100.00
35443;BME280;21561;55.654;37.592;2022-10-18T02:55:22;99796.00;;;6.95;100.00
35443;BME280;21561;55.654;37.592;2022-10-18T02:57:49;99774.44;;;6.88;100.00
35443;BME280;21561;55.654;37.592;2022-10-18T03:00:16;99769.22;;;6.85;100.00
35443;BME280;21561;55.654;37.592;2022-10-18T03:02:42;99760.63;;;6.83;100.00
35443;BME280;21561;55.654;37.592;2022-10-18T03:05:09;99764.91;;;6.85;100.00
35443;BME280;21561;55.654;37.592;2022-10-18T03:07:36;99762.41;;;6.90;100.00
35443;BME280;21561;55.654;37.592;2022-10-18T03:10:02;99764.97;;;6.90;100.00
35443;BME280;21561;55.654;37.592;2022-10-18T03:12:29;99764.09;;;6.88;100.00
35443;BME280;21561;55.654;37.592;2022-10-18T03:14:55;99733.16;;;6.88;100.00
35443;BME280;21561;55.654;37.592;2022-10-18T03:17:22;99738.31;;;6.88;100.00
35443;BME280;21561;55.654;37.592;2022-10-18T03:19:49;99751.22;;;6.88;100.00
35443;BME280;21561;55.654;37.592;2022-10-18T03:22:15;99734.81;;;6.83;100.00
35443;BME280;21561;55.654;37.592;2022-10-18T03:24:42;99733.97;;;6.85;100.00
35443;BME280;21561;55.654;37.592;2022-10-18T03:27:09;99727.13;;;6.86;100.00
35443;BME280;21561;55.654;37.592;2022-10-18T03:29:35;99720.19;;;6.82;100.00
35443;BME280;21561;55.654;37.592;2022-10-18T03:32:02;99727.03;;;6.80;100.00
35443;BME280;21561;55.654;37.592;2022-10-18T03:34:28;99722.75;;;6.82;100.00
35443;BME280;21561;55.654;37.592;2022-10-18T03:36:55;99714.16;;;6.80;100.00
35443;BME280;21561;55.654;37.592;2022-10-18T03:39:28;99700.41;;;6.81;100.00
35443;BME280;21561;55.654;37.592;2022-10-18T03:41:55;99709.81;;;6.74;100.00
35443;BME280;21561;55.654;37.592;2022-10-18T03:44:21;99694.38;;;6.77;100.00
35443;BME280;21561;55.654;37.592;2022-10-18T03:46:48;99696.88;;;6.73;100.00
35443;BME280;21561;55.654;37.592;2022-10-18T03:49:15;99683.16;;;6.74;100.00
35443;BME280;21561;55.654;37.592;2022-10-18T03:51:41;99686.53;;;6.66;100.00
35443;BME280;21561;55.654;37.592;2022-10-18T03:54:08;99678.84;;;6.69;100.00
35443;BME280;21561;55.654;37.592;2022-10-18T03:56:34;99680.50;;;6.67;100.00
35443;BME280;21561;55.654;37.592;2022-10-18T03:59:01;99661.59;;;6.67;100.00
35443;BME280;21561;55.654;37.592;2022-10-18T04:01:29;99654.72;;;6.64;100.00
35443;BME280;21561;55.654;37.592;2022-10-18T04:03:56;99664.09;;;6.56;100.00
35443;BME280;21561;55.654;37.592;2022-10-18T04:06:23;99665.78;;;6.54;100.00
35443;BME280;21561;55.654;37.592;2022-10-18T04:08:49;99661.41;;;6.47;100.00
35443;BME280;21561;55.654;37.592;2022-10-18T04:11:16;99663.13;;;6.45;100.00
35443;BME280;21561;55.654;37.592;2022-10-18T04:13:42;99668.25;;;6.42;100.00
35443;BME280;21561;55.654;37.592;2022-10-18T04:16:09;99659.66;;;6.43;100.00
35443;BME280;21561;55.654;37.592;2022-10-18T04:18:36;99655.31;;;6.37;100.00
35443;BME280;21561;55.654;37.592;2022-10-18T04:21:02;99651.88;;;6.37;100.00
35443;BME280;21561;55.654;37.592;2022-10-18T04:23:29;99651.88;;;6.37;100.00
35443;BME280;21561;55.654;37.592;2022-10-18T04:26:00;99644.91;;;6.29;100.00
35443;BME280;21561;55.654;37.592;2022-10-18T04:28:26;99653.53;;;6.31;100.00
35443;BME280;21561;55.654;37.592;2022-10-18T04:30:53;99636.34;;;6.30;100.00
35443;BME280;21561;55.654;37.592;2022-10-18T04:33:20;99640.63;;;6.28;100.00
35443;BME280;21561;55.654;37.592;2022-10-18T04:35:49;99634.66;;;6.33;100.00
35443;BME280;21561;55.654;37.592;2022-10-18T04:38:16;99631.16;;;6.27;100.00
35443;BME280;21561;55.654;37.592;2022-10-18T04:40:43;99627.75;;;6.31;100.00
35443;BME280;21561;55.654;37.592;2022-10-18T04:43:09;99624.28;;;6.25;100.00
35443;BME280;21561;55.654;37.592;2022-10-18T04:45:36;99626.84;;;6.23;100.00
35443;BME280;21561;55.654;37.592;2022-10-18T04:48:02;99617.34;;;6.22;100.00
35443;BME280;21561;55.654;37.592;2022-10-18T04:50:29;99620.81;;;6.21;100.00
35443;BME280;21561;55.654;37.592;2022-10-18T04:52:56;99613.06;;;6.21;100.00
35443;BME280;21561;55.654;37.592;2022-10-18T04:55:22;99615.59;;;6.17;100.00
35443;BME280;21561;55.654;37.592;2022-10-18T04:57:49;99613.84;;;6.14;100.00
35443;BME280;21561;55.654;37.592;2022-10-18T05:00:16;99603.56;;;6.16;100.00
35443;BME280;21561;55.654;37.592;2022-10-18T05:02:42;99600.19;;;6.21;100.00
35443;BME280;21561;55.654;37.592;2022-10-18T05:05:09;99599.31;;;6.22;100.00
35443;BME280;21561;55.654;37.592;2022-10-18T05:07:39;99595.94;;;6.25;100.00
35443;BME280;21561;55.654;37.592;2022-10-18T05:10:06;99601.09;;;6.28;100.00
35443;BME280;21561;55.654;37.592;2022-10-18T05:12:32;99588.25;;;6.33;100.00
35443;BME280;21561;55.654;37.592;2022-10-18T05:15:00;99591.75;;;6.38;100.00
35443;BME280;21561;55.654;37.592;2022-10-18T05:17:26;99606.41;;;6.43;100.00
35443;BME280;21561;55.654;37.592;2022-10-18T05:19:53;99598.66;;;6.42;100.00
35443;BME280;21561;55.654;37.592;2022-10-18T05:22:19;99596.09;;;6.45;100.00
35443;BME280;21561;55.654;37.592;2022-10-18T05:24:46;99603.81;;;6.42;100.00
35443;BME280;21561;55.654;37.592;2022-10-18T05:27:12;99605.59;;;6.49;100.00
35443;BME280;21561;55.654;37.592;2022-10-18T05:29:39;99610.78;;;6.52;100.00
35443;BME280;21561;55.654;37.592;2022-10-18T05:32:06;99618.47;;;6.49;100.00
35443;BME280;21561;55.654;37.592;2022-10-18T05:34:32;99618.41;;;6.40;100.00
35443;BME280;21561;55.654;37.592;2022-10-18T05:36:59;99606.44;;;6.48;100.00
35443;BME280;21561;55.654;37.592;2022-10-18T05:39:26;99607.28;;;6.47;100.00
35443;BME280;21561;55.654;37.592;2022-10-18T05:41:53;99608.19;;;6.50;100.00
35443;BME280;21561;55.654;37.592;2022-10-18T05:44:20;99611.69;;;6.57;100.00
35443;BME280;21561;55.654;37.592;2022-10-18T05:46:46;99613.34;;;6.52;100.00
35443;BME280;21561;55.654;37.592;2022-10-18T05:49:13;99608.16;;;6.47;100.00
35443;BME280;21561;55.654;37.592;2022-10-18T05:51:40;99603.84;;;6.49;100.00
35443;BME280;21561;55.654;37.592;2022-10-18T05:54:06;99605.59;;;6.50;100.00
35443;BME280;21561;55.654;37.592;2022-10-18T05:56:33;99596.22;;;6.57;100.00
35443;BME280;21561;55.654;37.592;2022-10-18T05:58:59;99579.94;;;6.64;100.00
35443;BME280;21561;55.654;37.592;2022-10-18T06:01:26;99580.78;;;6.65;100.00
35443;BME280;21561;55.654;37.592;2022-10-18T06:03:53;99584.22;;;6.62;100.00
35443;BME280;21561;55.654;37.592;2022-10-18T06:06:19;99571.34;;;6.65;100.00
35443;BME280;21561;55.654;37.592;2022-10-18T06:08:48;99569.63;;;6.67;100.00
35443;BME280;21561;55.654;37.592;2022-10-18T06:11:15;99567.91;;;6.66;100.00
35443;BME280;21561;55.654;37.592;2022-10-18T06:13:43;99563.63;;;6.68;100.00
35443;BME280;21561;55.654;37.592;2022-10-18T06:16:10;99566.22;;;6.68;100.00
35443;BME280;21561;55.654;37.592;2022-10-18T06:18:38;99549.03;;;6.71;100.00
35443;BME280;21561;55.654;37.592;2022-10-18T06:21:05;99546.47;;;6.74;100.00
35443;BME280;21561;55.654;37.592;2022-10-18T06:23:31;99550.81;;;6.81;100.00
35443;BME280;21561;55.654;37.592;2022-10-18T06:26:03;99549.09;;;6.80;100.00
35443;BME280;21561;55.654;37.592;2022-10-18T06:28:32;99530.16;;;6.78;100.00
35443;BME280;21561;55.654;37.592;2022-10-18T06:30:59;99533.63;;;6.83;100.00
35443;BME280;21561;55.654;37.592;2022-10-18T06:33:25;99513.84;;;6.77;100.00
35443;BME280;21561;55.654;37.592;2022-10-18T06:35:59;99517.28;;;6.78;100.00
35443;BME280;21561;55.654;37.592;2022-10-18T06:38:26;99514.63;;;6.68;100.00
35443;BME280;21561;55.654;37.592;2022-10-18T06:40:54;99511.13;;;6.57;100.00
35443;BME280;21561;55.654;37.592;2022-10-18T06:43:21;99488.81;;;6.59;100.00
35443;BME280;21561;55.654;37.592;2022-10-18T06:45:48;99463.03;;;6.59;100.00
35443;BME280;21561;55.654;37.592;2022-10-18T06:48:16;99432.91;;;6.57;100.00
35443;BME280;21561;55.654;37.592;2022-10-18T06:50:49;99422.56;;;6.49;100.00
35443;BME280;21561;55.654;37.592;2022-10-18T06:53:16;99385.59;;;6.47;100.00
35443;BME280;21561;55.654;37.592;2022-10-18T06:55:42;99398.47;;;6.44;100.00
35443;BME280;21561;55.654;37.592;2022-10-18T06:58:09;99412.22;;;6.41;100.00
35443;BME280;21561;55.654;37.592;2022-10-18T07:00:36;99422.50;;;6.38;100.00
35443;BME280;21561;55.654;37.592;2022-10-18T07:03:02;99417.34;;;6.40;100.00
35443;BME280;21561;55.654;37.592;2022-10-18T07:05:29;99405.31;;;6.40;100.00
35443;BME280;21561;55.654;37.592;2022-10-18T07:07:56;99376.97;;;6.39;100.00
35443;BME280;21561;55.654;37.592;2022-10-18T07:10:23;99364.94;;;6.38;100.00
35443;BME280;21561;55.654;37.592;2022-10-18T07:12:50;99371.81;;;6.39;100.00
35443;BME280;21561;55.654;37.592;2022-10-18T07:15:33;99356.34;;;6.39;100.00
35443;BME280;21561;55.654;37.592;2022-10-18T07:18:03;99312.53;;;6.39;100.00
35443;BME280;21561;55.654;37.592;2022-10-18T07:20:30;99315.97;;;6.42;100.00
35443;BME280;21561;55.654;37.592;2022-10-18T07:22:57;99315.16;;;6.45;100.00
35443;BME280;21561;55.654;37.592;2022-10-18T07:25:24;99308.28;;;6.41;100.00
35443;BME280;21561;55.654;37.592;2022-10-18T07:27:55;99284.19;;;6.39;100.00
35443;BME280;21561;55.654;37.592;2022-10-18T07:30:22;99280.75;;;6.40;100.00
35443;BME280;21561;55.654;37.592;2022-10-18T07:32:50;99271.31;;;6.42;100.00
35443;BME280;21561;55.654;37.592;2022-10-18T07:35:16;99261.03;;;6.43;100.00
35443;BME280;21561;55.654;37.592;2022-10-18T07:37:43;99250.75;;;6.48;100.00
35443;BME280;21561;55.654;37.592;2022-10-18T07:40:10;99243.81;;;6.44;100.00
35443;BME280;21561;55.654;37.592;2022-10-18T07:42:37;99225.81;;;6.47;100.00
35443;BME280;21561;55.654;37.592;2022-10-18T07:45:04;99217.22;;;6.51;100.00
35443;BME280;21561;55.654;37.592;2022-10-18T07:47:31;99206.91;;;6.51;100.00
35443;BME280;21561;55.654;37.592;2022-10-18T07:50:00;99193.19;;;6.55;100.00
35443;BME280;21561;55.654;37.592;2022-10-18T07:52:28;99187.16;;;6.55;100.00
35443;BME280;21561;55.654;37.592;2022-10-18T07:54:55;99171.69;;;6.58;100.00
35443;BME280;21561;55.654;37.592;2022-10-18T07:57:21;99151.91;;;6.58;100.00
35443;BME280;21561;55.654;37.592;2022-10-18T07:59:48;99158.81;;;6.62;100.00
35443;BME280;21561;55.654;37.592;2022-10-18T08:02:24;99151.91;;;6.58;100.00
35443;BME280;21561;55.654;37.592;2022-10-18T08:04:51;99117.56;;;6.62;100.00
35443;BME280;21561;55.654;37.592;2022-10-18T08:07:17;99098.66;;;6.63;100.00
35443;BME280;21561;55.654;37.592;2022-10-18T08:09:44;99079.75;;;6.64;100.00
35443;BME280;21561;55.654;37.592;2022-10-18T08:12:10;99081.47;;;6.62;100.00
35443;BME280;21561;55.654;37.592;2022-10-18T08:14:37;99075.44;;;6.63;100.00
35443;BME280;21561;55.654;37.592;2022-10-18T08:17:04;99058.28;;;6.62;100.00
35443;BME280;21561;55.654;37.592;2022-10-18T08:19:30;99054.81;;;6.65;100.00
35443;BME280;21561;55.654;37.592;2022-10-18T08:21:57;99047.09;;;6.63;100.00
35443;BME280;21561;55.654;37.592;2022-10-18T08:24:24;99023.88;;;6.63;100.00
35443;BME280;21561;55.654;37.592;2022-10-18T08:26:50;98997.25;;;6.64;100.00
35443;BME280;21561;55.654;37.592;2022-10-18T08:29:17;98970.63;;;6.62;100.00
35443;BME280;21561;55.654;37.592;2022-10-18T08:31:50;98944.81;;;6.64;100.00
35443;BME280;21561;55.654;37.592;2022-10-18T08:34:16;98938.81;;;6.63;100.00
35443;BME280;21561;55.654;37.592;2022-10-18T08:36:45;98921.66;;;6.62;100.00
35443;BME280;21561;55.654;37.592;2022-10-18T08:39:11;98891.56;;;6.63;100.00
35443;BME280;21561;55.654;37.592;2022-10-18T08:46:44;98832.28;;;6.60;100.00
35443;BME280;21561;55.654;37.592;2022-10-18T08:49:25;98822.81;;;6.62;100.00
35443;BME280;21561;55.654;37.592;2022-10-18T08:51:54;98810.78;;;6.62;100.00
35443;BME280;21561;55.654;37.592;2022-10-18T08:57:12;98801.31;;;6.64;100.00
35443;BME280;21561;55.654;37.592;2022-10-18T08:59:40;98789.28;;;6.63;100.00
35443;BME280;21561;55.654;37.592;2022-10-18T09:02:30;98778.97;;;6.63;100.00
35443;BME280;21561;55.654;37.592;2022-10-18T09:18:26;98791.81;;;6.74;100.00
35443;BME280;21561;55.654;37.592;2022-10-18T09:20:25;98795.22;;;6.78;100.00
35443;BME280;21561;55.654;37.592;2022-10-18T09:22:57;98795.22;;;6.79;100.00
35443;BME280;21561;55.654;37.592;2022-10-18T09:25:36;98796.06;;;6.86;100.00
35443;BME280;21561;55.654;37.592;2022-10-18T09:36:04;98739.09;;;7.17;100.00
35443;BME280;21561;55.654;37.592;2022-10-18T09:38:36;98727.88;;;7.21;100.00
35443;BME280;21561;55.654;37.592;2022-10-18T09:41:27;98723.53;;;7.26;100.00
35443;BME280;21561;55.654;37.592;2022-10-18T09:46:22;98732.94;;;7.35;100.00
35443;BME280;21561;55.654;37.592;2022-10-18T09:48:55;98736.31;;;7.40;100.00
35443;BME280;21561;55.654;37.592;2022-10-18T09:51:25;98721.66;;;7.43;100.00
35443;BME280;21561;55.654;37.592;2022-10-18T09:54:06;98730.22;;;7.49;100.00
35443;BME280;21561;55.654;37.592;2022-10-18T09:59:22;98712.91;;;7.60;100.00
35443;BME280;21561;55.654;37.592;2022-10-18T10:01:53;98701.63;;;7.70;100.00
35443;BME280;21561;55.654;37.592;2022-10-18T10:04:19;98704.94;;;7.81;100.00
35443;BME280;21561;55.654;37.592;2022-10-18T10:06:49;98706.56;;;7.90;100.00
35443;BME280;21561;55.654;37.592;2022-10-18T10:09:17;98693.50;;;8.01;100.00
35443;BME280;21561;55.654;37.592;2022-10-18T10:11:47;98681.38;;;8.08;100.00
35443;BME280;21561;55.654;37.592;2022-10-18T10:14:15;98676.09;;;8.15;100.00
35443;BME280;21561;55.654;37.592;2022-10-18T10:16:57;98684.59;;;8.23;100.00
35443;BME280;21561;55.654;37.592;2022-10-18T10:19:31;98671.59;;;8.31;100.00
35443;BME280;21561;55.654;37.592;2022-10-18T10:22:01;98666.31;;;8.39;100.00
35443;BME280;21561;55.654;37.592;2022-10-18T10:27:02;98657.47;;;8.57;100.00
35443;BME280;21561;55.654;37.592;2022-10-18T10:32:12;98652.91;;;8.74;100.00
35443;BME280;21561;55.654;37.592;2022-10-18T10:34:39;98655.34;;;8.82;100.00
35443;BME280;21561;55.654;37.592;2022-10-18T10:45:59;98657.34;;;9.19;100.00
35443;BME280;21561;55.654;37.592;2022-10-18T10:48:27;98639.03;;;9.30;100.00
35443;BME280;21561;55.654;37.592;2022-10-18T10:51:05;98636.25;;;9.41;100.00
35443;BME280;21561;55.654;37.592;2022-10-18T10:53:40;98636.13;;;9.47;100.00
35443;BME280;21561;55.654;37.592;2022-10-18T10:56:21;98644.53;;;9.58;100.00
35443;BME280;21561;55.654;37.592;2022-10-18T10:58:48;98649.50;;;9.70;100.00
35443;BME280;21561;55.654;37.592;2022-10-18T11:01:18;98638.94;;;9.80;100.00
35443;BME280;21561;55.654;37.592;2022-10-18T11:03:46;98626.63;;;9.91;100.00
35443;BME280;21561;55.654;37.592;2022-10-18T11:07:19;98635.91;;;10.01;100.00
35443;BME280;21561;55.654;37.592;2022-10-18T11:09:18;98611.53;;;10.10;100.00
35443;BME280;21561;55.654;37.592;2022-10-18T11:11:55;98623.56;;;10.14;100.00
35443;BME280;21561;55.654;37.592;2022-10-18T11:14:26;98598.44;;;10.18;100.00
35443;BME280;21561;55.654;37.592;2022-10-18T11:22:31;98607.69;;;10.28;100.00
35443;BME280;21561;55.654;37.592;2022-10-18T11:25:00;98614.56;;;10.30;100.00
35443;BME280;21561;55.654;37.592;2022-10-18T11:32:44;98607.34;;;10.45;100.00
35443;BME280;21561;55.654;37.592;2022-10-18T11:45:56;98616.44;;;10.63;100.00
35443;BME280;21561;55.654;37.592;2022-10-18T11:56:10;98609.81;;;10.85;100.00
35443;BME280;21561;55.654;37.592;2022-10-18T11:58:48;98617.69;;;10.82;100.00
35443;BME280;21561;55.654;37.592;2022-10-18T12:01:27;98617.59;;;10.85;100.00
35443;BME280;21561;55.654;37.592;2022-10-18T12:06:25;98597.47;;;10.95;100.00
35443;BME280;21561;55.654;37.592;2022-10-18T12:08:54;98612.03;;;11.01;100.00
35443;BME280;21561;55.654;37.592;2022-10-18T12:11:27;98600.78;;;11.02;100.00
35443;BME280;21561;55.654;37.592;2022-10-18T12:13:56;98597.28;;;11.03;100.00
35443;BME280;21561;55.654;37.592;2022-10-18T12:16:24;98599.78;;;11.06;100.00
35443;BME280;21561;55.654;37.592;2022-10-18T12:19:16;98604.75;;;11.15;100.00
35443;BME280;21561;55.654;37.592;2022-10-18T12:21:50;98599.47;;;11.18;100.00
35443;BME280;21561;55.654;37.592;2022-10-18T12:24:19;98600.31;;;11.19;100.00
35443;BME280;21561;55.654;37.592;2022-10-18T12:26:48;98605.34;;;11.25;100.00
35443;BME280;21561;55.654;37.592;2022-10-18T12:29:19;98601.75;;;11.31;100.00
35443;BME280;21561;55.654;37.592;2022-10-18T12:31:51;98609.47;;;11.32;100.00
35443;BME280;21561;55.654;37.592;2022-10-18T12:37:01;98591.91;;;11.42;100.00
35443;BME280;21561;55.654;37.592;2022-10-18T12:39:40;98594.44;;;11.45;100.00
35443;BME280;21561;55.654;37.592;2022-10-18T12:42:29;98596.94;;;11.48;100.00
35443;BME280;21561;55.654;37.592;2022-10-18T12:45:04;98598.66;;;11.49;100.00
35443;BME280;21561;55.654;37.592;2022-10-18T12:47:31;98589.03;;;11.53;100.00
35443;BME280;21561;55.654;37.592;2022-10-18T12:50:03;98598.38;;;11.58;100.00
35443;BME280;21561;55.654;37.592;2022-10-18T12:52:30;98593.13;;;11.61;100.00
35443;BME280;21561;55.654;37.592;2022-10-18T13:32:31;98587.00;;;12.22;100.00
35443;BME280;21561;55.654;37.592;2022-10-18T13:35:01;98603.53;;;12.21;100.00
35443;BME280;21561;55.654;37.592;2022-10-18T13:37:28;98607.81;;;12.22;100.00
35443;BME280;21561;55.654;37.592;2022-10-18T13:40:14;98609.50;;;12.25;100.00
35443;BME280;21561;55.654;37.592;2022-10-18T13:42:45;98625.47;;;12.12;100.00
35443;BME280;21561;55.654;37.592;2022-10-18T13:50:43;98628.44;;;12.00;100.00
35443;BME280;21561;55.654;37.592;2022-10-18T13:53:31;98657.88;;;12.00;100.00
35443;BME280;21561;55.654;37.592;2022-10-18T14:04:32;98671.06;;;11.94;100.00
35443;BME280;21561;55.654;37.592;2022-10-18T14:07:04;98666.72;;;11.93;100.00
35443;BME280;21561;55.654;37.592;2022-10-18T14:09:53;98658.22;;;11.88;100.00
35443;BME280;21561;55.654;37.592;2022-10-18T14:17:48;98668.59;;;11.88;100.00
35443;BME280;21561;55.654;37.592;2022-10-18T14:22:45;98700.72;;;11.85;100.00
35443;BME280;21561;55.654;37.592;2022-10-18T14:25:27;98669.56;;;11.84;100.00
35443;BME280;21561;55.654;37.592;2022-10-18T14:31:40;98686.91;;;11.83;100.00
35443;BME280;21561;55.654;37.592;2022-10-18T14:33:42;98712.13;;;11.80;100.00
35443;BME280;21561;55.654;37.592;2022-10-18T14:38:48;98701.81;;;11.77;100.00
35443;BME280;21561;55.654;37.592;2022-10-18T14:41:20;98687.19;;;11.74;100.00
35443;BME280;21561;55.654;37.592;2022-10-18T14:43:48;98681.13;;;11.74;100.00
35443;BME280;21561;55.654;37.592;2022-10-18T14:46:16;98666.41;;;11.73;100.00
35443;BME280;21561;55.654;37.592;2022-10-18T15:21:54;98747.69;;;11.45;100.00
35443;BME280;21561;55.654;37.592;2022-10-18T15:24:41;98744.38;;;11.40;100.00
35443;BME280;21561;55.654;37.592;2022-10-18T15:27:11;98753.09;;;11.36;100.00
35443;BME280;21561;55.654;37.592;2022-10-18T15:29:39;98759.97;;;11.38;100.00
35443;BME280;21561;55.654;37.592;2022-10-18T15:32:13;98766.16;;;11.34;100.00
35443;BME280;21561;55.654;37.592;2022-10-18T15:34:41;98760.09;;;11.34;100.00
35443;BME280;21561;55.654;37.592;2022-10-18T15:40:14;98791.41;;;11.27;99.96
35443;BME280;21561;55.654;37.592;2022-10-18T15:42:36;98781.94;;;11.25;99.64
35443;BME280;21561;55.654;37.592;2022-10-18T15:45:20;98787.06;;;11.28;100.00
35443;BME280;21561;55.654;37.592;2022-10-18T15:58:36;98783.88;;;11.17;99.49
35443;BME280;21561;55.654;37.592;2022-10-18T16:01:04;98786.44;;;11.18;100.00
35443;BME280;21561;55.654;37.592;2022-10-18T16:03:35;98779.53;;;11.17;100.00
35443;BME280;21561;55.654;37.592;2022-10-18T16:06:03;98784.88;;;11.11;100.00
35443;BME280;21561;55.654;37.592;2022-10-18T16:08:30;98793.53;;;11.10;100.00
35443;BME280;21561;55.654;37.592;2022-10-18T16:10:57;98811.09;;;10.99;100.00
35443;BME280;21561;55.654;37.592;2022-10-18T16:13:24;98798.88;;;11.04;100.00
35443;BME280;21561;55.654;37.592;2022-10-18T16:15:51;98793.75;;;11.01;100.00
35443;BME280;21561;55.654;37.592;2022-10-18T16:18:20;98808.63;;;10.93;100.00
35443;BME280;21561;55.654;37.592;2022-10-18T16:20:47;98816.41;;;10.93;100.00
35443;BME280;21561;55.654;37.592;2022-10-18T16:25:41;98805.19;;;10.92;100.00
35443;BME280;21561;55.654;37.592;2022-10-18T16:28:11;98823.47;;;10.87;100.00
35443;BME280;21561;55.654;37.592;2022-10-18T16:30:38;98828.66;;;10.87;100.00
35443;BME280;21561;55.654;37.592;2022-10-18T16:33:05;98826.88;;;10.89;100.00
35443;BME280;21561;55.654;37.592;2022-10-18T16:35:32;98838.97;;;10.91;100.00
35443;BME280;21561;55.654;37.592;2022-10-18T16:38:00;98829.63;;;10.82;100.00